La Sortija, Argentina
Current Conditions -  °F | °C
As of 2:00 AM on Saturday 20 Dec 2014 (Local Time) from SAZM Reporting Station
Broken Clouds Broken Clouds  
Wind Chill: 64°   Ceiling: 3000
Heat Index: 64°   Visibility: 5mi
Dew Point: 59°   Wind: 9mph
Humidity: 83%   Direction: 340°NNW
Pressure: 29.53"   Gusts: NA
Location:  38.13°S, 60.71°W
Report Text: SAZM 200500Z 34008KT 8000 SCT010 BKN030FEW040CB 18/15 Q1000
Loading
Personal Weather Stations






























Interactive Weather Map New forecast layout! Learn more

10-Day Weather Forecast

Advertisements
Track Severe Weather on mobile